sensor_id;sensor_type;location;lat;lon;timestamp;P1;durP1;ratioP1;P2;durP2;ratioP2
13202;SDS011;6666;51.626;7.530;2023-02-22T00:02:08;32.35;;;14.43;;
13202;SDS011;6666;51.626;7.530;2023-02-22T00:04:39;37.05;;;15.90;;
13202;SDS011;6666;51.626;7.530;2023-02-22T00:07:07;36.30;;;14.82;;
13202;SDS011;6666;51.626;7.530;2023-02-22T00:09:35;33.08;;;14.18;;
13202;SDS011;6666;51.626;7.530;2023-02-22T00:12:05;37.90;;;15.70;;
13202;SDS011;6666;51.626;7.530;2023-02-22T00:14:35;35.00;;;15.20;;
13202;SDS011;6666;51.626;7.530;2023-02-22T00:17:05;37.58;;;14.48;;
13202;SDS011;6666;51.626;7.530;2023-02-22T00:19:34;35.20;;;14.70;;
13202;SDS011;6666;51.626;7.530;2023-02-22T00:22:02;35.87;;;15.33;;
13202;SDS011;6666;51.626;7.530;2023-02-22T00:24:31;36.30;;;15.40;;
13202;SDS011;6666;51.626;7.530;2023-02-22T00:27:02;34.92;;;15.13;;
13202;SDS011;6666;51.626;7.530;2023-02-22T00:29:31;37.03;;;15.70;;
13202;SDS011;6666;51.626;7.530;2023-02-22T00:32:01;39.58;;;15.95;;
13202;SDS011;6666;51.626;7.530;2023-02-22T00:34:31;36.72;;;15.13;;
13202;SDS011;6666;51.626;7.530;2023-02-22T00:36:59;42.60;;;15.48;;
13202;SDS011;6666;51.626;7.530;2023-02-22T00:39:29;36.97;;;16.60;;
13202;SDS011;6666;51.626;7.530;2023-02-22T00:41:57;43.35;;;16.52;;
13202;SDS011;6666;51.626;7.530;2023-02-22T00:44:27;42.58;;;17.67;;
13202;SDS011;6666;51.626;7.530;2023-02-22T00:46:57;38.80;;;16.83;;
13202;SDS011;6666;51.626;7.530;2023-02-22T00:49:25;40.05;;;15.40;;
13202;SDS011;6666;51.626;7.530;2023-02-22T00:51:54;39.42;;;15.40;;
13202;SDS011;6666;51.626;7.530;2023-02-22T00:54:22;41.15;;;16.58;;
13202;SDS011;6666;51.626;7.530;2023-02-22T00:56:51;38.40;;;15.98;;
13202;SDS011;6666;51.626;7.530;2023-02-22T00:59:19;35.50;;;15.65;;
13202;SDS011;6666;51.626;7.530;2023-02-22T01:01:48;36.10;;;15.52;;
13202;SDS011;6666;51.626;7.530;2023-02-22T01:04:18;33.60;;;15.25;;
13202;SDS011;6666;51.626;7.530;2023-02-22T01:06:48;36.10;;;14.88;;
13202;SDS011;6666;51.626;7.530;2023-02-22T01:09:16;35.17;;;14.73;;
13202;SDS011;6666;51.626;7.530;2023-02-22T01:11:45;28.85;;;13.75;;
13202;SDS011;6666;51.626;7.530;2023-02-22T01:14:15;31.00;;;14.73;;
13202;SDS011;6666;51.626;7.530;2023-02-22T01:16:46;31.08;;;13.77;;
13202;SDS011;6666;51.626;7.530;2023-02-22T01:19:16;28.52;;;13.60;;
13202;SDS011;6666;51.626;7.530;2023-02-22T01:21:47;32.78;;;13.95;;
13202;SDS011;6666;51.626;7.530;2023-02-22T01:24:16;27.77;;;13.23;;
13202;SDS011;6666;51.626;7.530;2023-02-22T01:26:48;35.90;;;14.35;;
13202;SDS011;6666;51.626;7.530;2023-02-22T01:29:18;30.93;;;13.50;;
13202;SDS011;6666;51.626;7.530;2023-02-22T01:31:51;26.50;;;12.52;;
13202;SDS011;6666;51.626;7.530;2023-02-22T01:34:23;28.70;;;13.32;;
13202;SDS011;6666;51.626;7.530;2023-02-22T01:36:52;33.38;;;15.05;;
13202;SDS011;6666;51.626;7.530;2023-02-22T01:39:20;34.40;;;14.55;;
13202;SDS011;6666;51.626;7.530;2023-02-22T01:41:49;34.65;;;14.88;;
13202;SDS011;6666;51.626;7.530;2023-02-22T01:44:23;36.55;;;14.50;;
13202;SDS011;6666;51.626;7.530;2023-02-22T01:46:57;34.05;;;14.93;;
13202;SDS011;6666;51.626;7.530;2023-02-22T01:49:30;38.08;;;14.55;;
13202;SDS011;6666;51.626;7.530;2023-02-22T01:52:04;38.97;;;16.85;;
13202;SDS011;6666;51.626;7.530;2023-02-22T01:54:36;50.28;;;18.20;;
13202;SDS011;6666;51.626;7.530;2023-02-22T01:57:11;44.10;;;17.05;;
13202;SDS011;6666;51.626;7.530;2023-02-22T01:59:43;52.47;;;17.60;;
13202;SDS011;6666;51.626;7.530;2023-02-22T02:02:15;59.13;;;19.20;;
13202;SDS011;6666;51.626;7.530;2023-02-22T02:04:46;50.40;;;17.10;;
13202;SDS011;6666;51.626;7.530;2023-02-22T02:07:16;53.70;;;18.13;;
13202;SDS011;6666;51.626;7.530;2023-02-22T02:09:48;55.38;;;18.38;;
13202;SDS011;6666;51.626;7.530;2023-02-22T02:12:21;51.63;;;16.48;;
13202;SDS011;6666;51.626;7.530;2023-02-22T02:14:50;49.67;;;17.07;;
13202;SDS011;6666;51.626;7.530;2023-02-22T02:17:20;46.92;;;16.92;;
13202;SDS011;6666;51.626;7.530;2023-02-22T02:19:52;52.13;;;16.15;;
13202;SDS011;6666;51.626;7.530;2023-02-22T02:22:29;44.15;;;15.27;;
13202;SDS011;6666;51.626;7.530;2023-02-22T02:28:38;51.67;;;15.60;;
13202;SDS011;6666;51.626;7.530;2023-02-22T02:31:52;42.63;;;15.15;;
13202;SDS011;6666;51.626;7.530;2023-02-22T02:34:43;46.37;;;14.53;;
13202;SDS011;6666;51.626;7.530;2023-02-22T02:37:19;64.15;;;14.82;;
13202;SDS011;6666;51.626;7.530;2023-02-22T02:39:55;50.03;;;14.20;;
13202;SDS011;6666;51.626;7.530;2023-02-22T02:42:37;68.90;;;14.43;;
13202;SDS011;6666;51.626;7.530;2023-02-22T02:45:10;64.43;;;15.05;;
13202;SDS011;6666;51.626;7.530;2023-02-22T02:47:44;52.75;;;14.32;;
13202;SDS011;6666;51.626;7.530;2023-02-22T02:50:16;60.38;;;14.55;;
13202;SDS011;6666;51.626;7.530;2023-02-22T02:52:47;59.47;;;13.98;;
13202;SDS011;6666;51.626;7.530;2023-02-22T02:55:17;50.95;;;13.77;;
13202;SDS011;6666;51.626;7.530;2023-02-22T02:57:46;72.82;;;14.40;;
13202;SDS011;6666;51.626;7.530;2023-02-22T03:00:15;53.45;;;15.55;;
13202;SDS011;6666;51.626;7.530;2023-02-22T03:02:56;48.80;;;13.77;;
13202;SDS011;6666;51.626;7.530;2023-02-22T03:05:40;47.13;;;14.95;;
13202;SDS011;6666;51.626;7.530;2023-02-22T03:08:20;57.72;;;13.73;;
13202;SDS011;6666;51.626;7.530;2023-02-22T03:10:58;48.65;;;14.27;;
13202;SDS011;6666;51.626;7.530;2023-02-22T03:13:44;52.05;;;13.13;;
13202;SDS011;6666;51.626;7.530;2023-02-22T03:16:24;36.97;;;11.68;;
13202;SDS011;6666;51.626;7.530;2023-02-22T03:19:03;64.50;;;12.00;;
13202;SDS011;6666;51.626;7.530;2023-02-22T03:21:38;43.30;;;10.45;;
13202;SDS011;6666;51.626;7.530;2023-02-22T03:24:13;26.83;;;10.35;;
13202;SDS011;6666;51.626;7.530;2023-02-22T03:26:46;41.47;;;9.30;;
13202;SDS011;6666;51.626;7.530;2023-02-22T03:29:20;28.70;;;10.00;;
13202;SDS011;6666;51.626;7.530;2023-02-22T03:31:52;22.70;;;9.20;;
13202;SDS011;6666;51.626;7.530;2023-02-22T03:34:32;36.58;;;8.60;;
13202;SDS011;6666;51.626;7.530;2023-02-22T03:37:05;37.05;;;8.95;;
13202;SDS011;6666;51.626;7.530;2023-02-22T03:39:41;28.67;;;7.85;;
13202;SDS011;6666;51.626;7.530;2023-02-22T03:42:12;27.48;;;8.57;;
13202;SDS011;6666;51.626;7.530;2023-02-22T03:44:44;34.33;;;8.60;;
13202;SDS011;6666;51.626;7.530;2023-02-22T03:47:15;24.63;;;8.70;;
13202;SDS011;6666;51.626;7.530;2023-02-22T03:49:52;23.67;;;8.60;;
13202;SDS011;6666;51.626;7.530;2023-02-22T03:52:24;24.38;;;8.55;;
13202;SDS011;6666;51.626;7.530;2023-02-22T03:54:52;31.20;;;9.55;;
13202;SDS011;6666;51.626;7.530;2023-02-22T03:57:21;33.22;;;8.80;;
13202;SDS011;6666;51.626;7.530;2023-02-22T04:00:03;27.35;;;8.18;;
13202;SDS011;6666;51.626;7.530;2023-02-22T04:02:38;23.02;;;8.15;;
13202;SDS011;6666;51.626;7.530;2023-02-22T04:05:12;25.80;;;9.35;;
13202;SDS011;6666;51.626;7.530;2023-02-22T04:07:41;27.38;;;8.73;;
13202;SDS011;6666;51.626;7.530;2023-02-22T04:10:10;22.35;;;8.65;;
13202;SDS011;6666;51.626;7.530;2023-02-22T04:12:40;20.35;;;8.50;;
13202;SDS011;6666;51.626;7.530;2023-02-22T04:15:11;22.08;;;8.50;;
13202;SDS011;6666;51.626;7.530;2023-02-22T04:17:41;23.48;;;8.20;;
13202;SDS011;6666;51.626;7.530;2023-02-22T04:20:14;21.05;;;8.27;;
13202;SDS011;6666;51.626;7.530;2023-02-22T04:22:58;20.30;;;7.40;;
13202;SDS011;6666;51.626;7.530;2023-02-22T04:25:27;26.27;;;7.93;;
13202;SDS011;6666;51.626;7.530;2023-02-22T04:27:56;26.87;;;8.03;;
13202;SDS011;6666;51.626;7.530;2023-02-22T04:30:37;34.08;;;8.75;;
13202;SDS011;6666;51.626;7.530;2023-02-22T04:33:09;21.05;;;8.05;;
13202;SDS011;6666;51.626;7.530;2023-02-22T04:35:39;24.00;;;7.88;;
13202;SDS011;6666;51.626;7.530;2023-02-22T04:38:07;24.80;;;7.85;;
13202;SDS011;6666;51.626;7.530;2023-02-22T04:40:38;18.92;;;7.35;;
13202;SDS011;6666;51.626;7.530;2023-02-22T04:43:06;21.20;;;7.80;;
13202;SDS011;6666;51.626;7.530;2023-02-22T04:45:35;32.67;;;7.85;;
13202;SDS011;6666;51.626;7.530;2023-02-22T04:48:05;25.60;;;6.90;;
13202;SDS011;6666;51.626;7.530;2023-02-22T04:50:34;20.23;;;7.13;;
13202;SDS011;6666;51.626;7.530;2023-02-22T04:53:04;18.13;;;6.80;;
13202;SDS011;6666;51.626;7.530;2023-02-22T04:55:35;26.13;;;6.95;;
13202;SDS011;6666;51.626;7.530;2023-02-22T04:58:04;23.88;;;7.13;;
13202;SDS011;6666;51.626;7.530;2023-02-22T05:00:35;27.95;;;7.00;;
13202;SDS011;6666;51.626;7.530;2023-02-22T05:03:05;36.60;;;7.22;;
13202;SDS011;6666;51.626;7.530;2023-02-22T05:05:34;14.35;;;6.13;;
13202;SDS011;6666;51.626;7.530;2023-02-22T05:08:02;29.63;;;7.82;;
13202;SDS011;6666;51.626;7.530;2023-02-22T05:10:33;22.50;;;6.68;;
13202;SDS011;6666;51.626;7.530;2023-02-22T05:13:01;30.40;;;6.53;;
13202;SDS011;6666;51.626;7.530;2023-02-22T05:15:31;25.23;;;7.00;;
13202;SDS011;6666;51.626;7.530;2023-02-22T05:17:59;19.50;;;7.10;;
13202;SDS011;6666;51.626;7.530;2023-02-22T05:20:28;18.55;;;6.38;;
13202;SDS011;6666;51.626;7.530;2023-02-22T05:22:58;17.88;;;6.57;;
13202;SDS011;6666;51.626;7.530;2023-02-22T05:25:28;25.30;;;6.90;;
13202;SDS011;6666;51.626;7.530;2023-02-22T05:27:57;18.17;;;7.30;;
13202;SDS011;6666;51.626;7.530;2023-02-22T05:30:28;17.25;;;6.90;;
13202;SDS011;6666;51.626;7.530;2023-02-22T05:32:57;24.55;;;6.65;;
13202;SDS011;6666;51.626;7.530;2023-02-22T05:35:26;16.30;;;6.22;;
13202;SDS011;6666;51.626;7.530;2023-02-22T05:37:55;22.40;;;7.28;;
13202;SDS011;6666;51.626;7.530;2023-02-22T05:40:25;14.13;;;6.63;;
13202;SDS011;6666;51.626;7.530;2023-02-22T05:42:56;16.40;;;6.57;;
13202;SDS011;6666;51.626;7.530;2023-02-22T05:45:25;21.48;;;6.68;;
13202;SDS011;6666;51.626;7.530;2023-02-22T05:47:54;13.38;;;5.63;;
13202;SDS011;6666;51.626;7.530;2023-02-22T05:50:23;14.55;;;6.28;;
13202;SDS011;6666;51.626;7.530;2023-02-22T05:52:51;18.48;;;6.40;;
13202;SDS011;6666;51.626;7.530;2023-02-22T05:55:21;19.67;;;5.90;;
13202;SDS011;6666;51.626;7.530;2023-02-22T05:57:50;14.88;;;6.22;;
13202;SDS011;6666;51.626;7.530;2023-02-22T06:00:21;26.95;;;6.13;;
13202;SDS011;6666;51.626;7.530;2023-02-22T06:02:54;15.93;;;6.07;;
13202;SDS011;6666;51.626;7.530;2023-02-22T06:05:23;26.17;;;7.25;;
13202;SDS011;6666;51.626;7.530;2023-02-22T06:07:51;11.80;;;5.47;;
13202;SDS011;6666;51.626;7.530;2023-02-22T06:10:20;18.80;;;6.03;;
13202;SDS011;6666;51.626;7.530;2023-02-22T06:12:48;28.10;;;5.97;;
13202;SDS011;6666;51.626;7.530;2023-02-22T06:15:18;34.50;;;6.00;;
13202;SDS011;6666;51.626;7.530;2023-02-22T06:17:49;21.38;;;5.13;;
13202;SDS011;6666;51.626;7.530;2023-02-22T06:20:19;16.50;;;5.40;;
13202;SDS011;6666;51.626;7.530;2023-02-22T06:22:49;14.32;;;5.55;;
13202;SDS011;6666;51.626;7.530;2023-02-22T06:25:19;16.50;;;5.65;;
13202;SDS011;6666;51.626;7.530;2023-02-22T06:27:49;11.07;;;5.30;;
13202;SDS011;6666;51.626;7.530;2023-02-22T06:30:18;13.52;;;6.20;;
13202;SDS011;6666;51.626;7.530;2023-02-22T06:32:49;16.17;;;5.20;;
13202;SDS011;6666;51.626;7.530;2023-02-22T06:35:18;14.82;;;5.57;;
13202;SDS011;6666;51.626;7.530;2023-02-22T06:37:46;18.48;;;5.88;;
13202;SDS011;6666;51.626;7.530;2023-02-22T06:40:14;17.30;;;5.78;;
13202;SDS011;6666;51.626;7.530;2023-02-22T06:42:43;14.27;;;5.28;;
13202;SDS011;6666;51.626;7.530;2023-02-22T06:45:15;14.73;;;5.60;;
13202;SDS011;6666;51.626;7.530;2023-02-22T06:47:44;19.50;;;5.30;;
13202;SDS011;6666;51.626;7.530;2023-02-22T06:50:19;17.38;;;4.80;;
13202;SDS011;6666;51.626;7.530;2023-02-22T06:52:49;19.67;;;5.05;;
13202;SDS011;6666;51.626;7.530;2023-02-22T06:55:18;17.50;;;4.55;;
13202;SDS011;6666;51.626;7.530;2023-02-22T06:57:48;27.63;;;5.33;;
13202;SDS011;6666;51.626;7.530;2023-02-22T07:00:18;19.77;;;5.95;;
13202;SDS011;6666;51.626;7.530;2023-02-22T07:02:47;12.85;;;5.50;;
13202;SDS011;6666;51.626;7.530;2023-02-22T07:05:16;7.68;;;4.47;;
13202;SDS011;6666;51.626;7.530;2023-02-22T07:07:46;15.00;;;4.70;;
13202;SDS011;6666;51.626;7.530;2023-02-22T07:10:19;13.05;;;4.30;;
13202;SDS011;6666;51.626;7.530;2023-02-22T07:12:49;18.80;;;7.03;;
13202;SDS011;6666;51.626;7.530;2023-02-22T07:15:18;22.15;;;4.65;;
13202;SDS011;6666;51.626;7.530;2023-02-22T07:17:48;8.30;;;4.65;;
13202;SDS011;6666;51.626;7.530;2023-02-22T07:20:19;18.55;;;5.22;;
13202;SDS011;6666;51.626;7.530;2023-02-22T07:22:50;18.27;;;4.37;;
13202;SDS011;6666;51.626;7.530;2023-02-22T07:25:18;10.98;;;4.03;;
13202;SDS011;6666;51.626;7.530;2023-02-22T07:27:48;17.13;;;4.70;;
13202;SDS011;6666;51.626;7.530;2023-02-22T07:30:18;9.13;;;3.90;;
13202;SDS011;6666;51.626;7.530;2023-02-22T07:32:51;11.07;;;4.30;;
13202;SDS011;6666;51.626;7.530;2023-02-22T07:35:22;17.90;;;4.60;;
13202;SDS011;6666;51.626;7.530;2023-02-22T07:37:51;28.45;;;5.00;;
13202;SDS011;6666;51.626;7.530;2023-02-22T07:40:21;20.25;;;4.90;;
13202;SDS011;6666;51.626;7.530;2023-02-22T07:42:51;11.18;;;4.50;;
13202;SDS011;6666;51.626;7.530;2023-02-22T07:45:21;13.23;;;4.60;;
13202;SDS011;6666;51.626;7.530;2023-02-22T07:47:50;9.80;;;5.45;;
13202;SDS011;6666;51.626;7.530;2023-02-22T07:50:19;15.13;;;5.22;;
13202;SDS011;6666;51.626;7.530;2023-02-22T07:52:50;12.98;;;5.63;;
13202;SDS011;6666;51.626;7.530;2023-02-22T07:55:21;13.75;;;4.75;;
13202;SDS011;6666;51.626;7.530;2023-02-22T07:57:51;23.65;;;6.93;;
13202;SDS011;6666;51.626;7.530;2023-02-22T08:00:22;21.20;;;6.50;;
13202;SDS011;6666;51.626;7.530;2023-02-22T08:02:52;18.05;;;7.18;;
13202;SDS011;6666;51.626;7.530;2023-02-22T08:05:21;18.20;;;6.97;;
13202;SDS011;6666;51.626;7.530;2023-02-22T08:07:52;21.13;;;5.90;;
13202;SDS011;6666;51.626;7.530;2023-02-22T08:10:22;13.77;;;6.53;;
13202;SDS011;6666;51.626;7.530;2023-02-22T08:12:52;19.15;;;6.20;;
13202;SDS011;6666;51.626;7.530;2023-02-22T08:15:22;12.40;;;5.50;;
13202;SDS011;6666;51.626;7.530;2023-02-22T08:17:54;12.13;;;5.90;;
13202;SDS011;6666;51.626;7.530;2023-02-22T08:20:23;16.35;;;6.00;;
13202;SDS011;6666;51.626;7.530;2023-02-22T08:22:53;17.37;;;7.00;;
13202;SDS011;6666;51.626;7.530;2023-02-22T08:25:23;22.60;;;7.45;;
13202;SDS011;6666;51.626;7.530;2023-02-22T08:27:55;14.88;;;6.40;;
13202;SDS011;6666;51.626;7.530;2023-02-22T08:30:27;11.18;;;6.00;;
13202;SDS011;6666;51.626;7.530;2023-02-22T08:32:56;16.23;;;6.15;;
13202;SDS011;6666;51.626;7.530;2023-02-22T08:35:26;14.18;;;6.60;;
13202;SDS011;6666;51.626;7.530;2023-02-22T08:37:57;12.05;;;6.45;;
13202;SDS011;6666;51.626;7.530;2023-02-22T08:40:27;13.57;;;6.18;;
13202;SDS011;6666;51.626;7.530;2023-02-22T08:42:57;13.93;;;6.70;;
13202;SDS011;6666;51.626;7.530;2023-02-22T08:45:27;10.75;;;6.38;;
13202;SDS011;6666;51.626;7.530;2023-02-22T08:47:56;14.65;;;6.80;;
13202;SDS011;6666;51.626;7.530;2023-02-22T08:50:25;12.18;;;6.70;;
13202;SDS011;6666;51.626;7.530;2023-02-22T08:52:57;9.73;;;6.40;;
13202;SDS011;6666;51.626;7.530;2023-02-22T08:55:27;13.18;;;6.80;;
13202;SDS011;6666;51.626;7.530;2023-02-22T08:57:58;15.80;;;7.40;;
13202;SDS011;6666;51.626;7.530;2023-02-22T09:00:28;10.52;;;6.60;;
13202;SDS011;6666;51.626;7.530;2023-02-22T09:02:59;12.35;;;6.68;;
13202;SDS011;6666;51.626;7.530;2023-02-22T09:05:28;11.00;;;6.65;;
13202;SDS011;6666;51.626;7.530;2023-02-22T09:07:59;13.73;;;7.60;;
13202;SDS011;6666;51.626;7.530;2023-02-22T09:10:28;12.63;;;7.13;;
13202;SDS011;6666;51.626;7.530;2023-02-22T09:12:58;16.97;;;7.33;;
13202;SDS011;6666;51.626;7.530;2023-02-22T09:15:27;19.73;;;7.68;;
13202;SDS011;6666;51.626;7.530;2023-02-22T09:17:57;14.70;;;7.50;;
13202;SDS011;6666;51.626;7.530;2023-02-22T09:20:26;21.40;;;9.00;;
13202;SDS011;6666;51.626;7.530;2023-02-22T09:22:55;18.73;;;8.60;;
13202;SDS011;6666;51.626;7.530;2023-02-22T09:25:26;19.93;;;9.97;;
13202;SDS011;6666;51.626;7.530;2023-02-22T09:27:55;18.80;;;9.27;;
13202;SDS011;6666;51.626;7.530;2023-02-22T09:30:25;15.82;;;8.07;;
13202;SDS011;6666;51.626;7.530;2023-02-22T09:32:59;17.77;;;8.37;;
13202;SDS011;6666;51.626;7.530;2023-02-22T09:35:29;17.27;;;8.07;;
13202;SDS011;6666;51.626;7.530;2023-02-22T09:38:02;13.45;;;7.78;;
13202;SDS011;6666;51.626;7.530;2023-02-22T09:40:34;12.55;;;7.18;;
13202;SDS011;6666;51.626;7.530;2023-02-22T09:43:21;12.30;;;7.40;;
13202;SDS011;6666;51.626;7.530;2023-02-22T09:46:01;15.57;;;8.00;;
13202;SDS011;6666;51.626;7.530;2023-02-22T09:48:42;13.93;;;7.73;;
13202;SDS011;6666;51.626;7.530;2023-02-22T09:51:24;15.33;;;8.20;;
13202;SDS011;6666;51.626;7.530;2023-02-22T09:53:57;12.93;;;7.35;;
13202;SDS011;6666;51.626;7.530;2023-02-22T09:56:30;13.77;;;8.00;;
13202;SDS011;6666;51.626;7.530;2023-02-22T09:59:01;14.02;;;7.50;;
13202;SDS011;6666;51.626;7.530;2023-02-22T10:01:33;13.93;;;7.88;;
13202;SDS011;6666;51.626;7.530;2023-02-22T10:04:08;12.25;;;7.70;;
13202;SDS011;6666;51.626;7.530;2023-02-22T10:06:49;13.88;;;7.32;;
13202;SDS011;6666;51.626;7.530;2023-02-22T10:09:31;17.27;;;7.75;;
13202;SDS011;6666;51.626;7.530;2023-02-22T10:12:07;14.55;;;8.32;;
13202;SDS011;6666;51.626;7.530;2023-02-22T10:14:49;14.73;;;8.57;;
13202;SDS011;6666;51.626;7.530;2023-02-22T10:17:35;15.18;;;8.32;;
13202;SDS011;6666;51.626;7.530;2023-02-22T10:20:17;13.90;;;7.97;;
13202;SDS011;6666;51.626;7.530;2023-02-22T10:22:59;12.48;;;7.40;;
13202;SDS011;6666;51.626;7.530;2023-02-22T10:25:37;13.05;;;7.30;;
13202;SDS011;6666;51.626;7.530;2023-02-22T10:28:12;14.23;;;7.60;;
13202;SDS011;6666;51.626;7.530;2023-02-22T10:30:46;11.88;;;7.57;;
13202;SDS011;6666;51.626;7.530;2023-02-22T10:33:20;15.20;;;8.32;;
13202;SDS011;6666;51.626;7.530;2023-02-22T10:35:52;12.55;;;7.78;;
13202;SDS011;6666;51.626;7.530;2023-02-22T10:38:22;13.80;;;7.68;;
13202;SDS011;6666;51.626;7.530;2023-02-22T10:40:53;17.08;;;7.50;;
13202;SDS011;6666;51.626;7.530;2023-02-22T10:43:25;15.33;;;8.23;;
13202;SDS011;6666;51.626;7.530;2023-02-22T10:45:54;13.18;;;7.10;;
13202;SDS011;6666;51.626;7.530;2023-02-22T10:48:27;14.68;;;8.13;;
13202;SDS011;6666;51.626;7.530;2023-02-22T10:50:58;13.45;;;8.30;;
13202;SDS011;6666;51.626;7.530;2023-02-22T10:53:30;12.75;;;7.85;;
13202;SDS011;6666;51.626;7.530;2023-02-22T10:56:06;15.45;;;8.52;;
13202;SDS011;6666;51.626;7.530;2023-02-22T10:58:40;16.23;;;7.13;;
13202;SDS011;6666;51.626;7.530;2023-02-22T11:01:17;11.55;;;6.68;;
13202;SDS011;6666;51.626;7.530;2023-02-22T11:03:55;13.30;;;7.20;;
13202;SDS011;6666;51.626;7.530;2023-02-22T11:06:26;12.95;;;7.20;;
13202;SDS011;6666;51.626;7.530;2023-02-22T11:09:03;12.70;;;7.87;;
13202;SDS011;6666;51.626;7.530;2023-02-22T11:11:36;11.85;;;6.82;;
13202;SDS011;6666;51.626;7.530;2023-02-22T11:14:07;13.02;;;7.70;;
13202;SDS011;6666;51.626;7.530;2023-02-22T11:16:37;11.60;;;7.38;;
13202;SDS011;6666;51.626;7.530;2023-02-22T11:19:16;16.35;;;6.65;;
13202;SDS011;6666;51.626;7.530;2023-02-22T11:21:49;13.52;;;7.03;;
13202;SDS011;6666;51.626;7.530;2023-02-22T11:24:20;11.73;;;6.85;;
13202;SDS011;6666;51.626;7.530;2023-02-22T11:26:58;11.57;;;7.30;;
13202;SDS011;6666;51.626;7.530;2023-02-22T11:29:31;12.50;;;7.18;;
13202;SDS011;6666;51.626;7.530;2023-02-22T11:32:02;12.20;;;7.18;;
13202;SDS011;6666;51.626;7.530;2023-02-22T11:34:40;11.15;;;7.20;;
13202;SDS011;6666;51.626;7.530;2023-02-22T11:37:16;12.17;;;7.07;;
13202;SDS011;6666;51.626;7.530;2023-02-22T11:40:06;14.38;;;7.03;;
13202;SDS011;6666;51.626;7.530;2023-02-22T11:42:48;11.90;;;6.25;;
13202;SDS011;6666;51.626;7.530;2023-02-22T11:45:32;8.95;;;6.10;;
13202;SDS011;6666;51.626;7.530;2023-02-22T11:48:04;10.07;;;6.80;;
13202;SDS011;6666;51.626;7.530;2023-02-22T11:50:37;18.60;;;6.63;;
13202;SDS011;6666;51.626;7.530;2023-02-22T11:53:24;11.38;;;6.85;;
13202;SDS011;6666;51.626;7.530;2023-02-22T11:56:03;10.98;;;6.30;;
13202;SDS011;6666;51.626;7.530;2023-02-22T11:58:43;10.05;;;6.13;;
13202;SDS011;6666;51.626;7.530;2023-02-22T12:01:18;15.35;;;7.07;;
13202;SDS011;6666;51.626;7.530;2023-02-22T12:03:57;14.57;;;6.90;;
13202;SDS011;6666;51.626;7.530;2023-02-22T12:06:50;11.50;;;6.83;;
13202;SDS011;6666;51.626;7.530;2023-02-22T12:09:25;10.98;;;6.03;;
13202;SDS011;6666;51.626;7.530;2023-02-22T12:12:04;13.60;;;6.30;;
13202;SDS011;6666;51.626;7.530;2023-02-22T12:14:39;11.48;;;6.40;;
13202;SDS011;6666;51.626;7.530;2023-02-22T12:17:20;10.95;;;5.85;;
13202;SDS011;6666;51.626;7.530;2023-02-22T12:19:56;11.60;;;6.55;;
13202;SDS011;6666;51.626;7.530;2023-02-22T12:22:33;10.83;;;6.23;;
13202;SDS011;6666;51.626;7.530;2023-02-22T12:25:04;14.93;;;5.47;;
13202;SDS011;6666;51.626;7.530;2023-02-22T12:27:41;11.97;;;5.00;;
13202;SDS011;6666;51.626;7.530;2023-02-22T12:30:17;10.57;;;5.22;;
13202;SDS011;6666;51.626;7.530;2023-02-22T12:32:51;11.15;;;5.60;;
13202;SDS011;6666;51.626;7.530;2023-02-22T12:35:24;7.97;;;4.80;;
13202;SDS011;6666;51.626;7.530;2023-02-22T12:37:58;11.30;;;4.80;;
13202;SDS011;6666;51.626;7.530;2023-02-22T12:40:32;7.55;;;4.45;;
13202;SDS011;6666;51.626;7.530;2023-02-22T12:43:09;9.67;;;4.77;;
13202;SDS011;6666;51.626;7.530;2023-02-22T12:45:44;8.93;;;4.50;;
13202;SDS011;6666;51.626;7.530;2023-02-22T12:48:21;9.45;;;4.45;;
13202;SDS011;6666;51.626;7.530;2023-02-22T12:50:58;8.00;;;4.38;;
13202;SDS011;6666;51.626;7.530;2023-02-22T12:53:34;9.40;;;3.70;;
13202;SDS011;6666;51.626;7.530;2023-02-22T12:56:11;7.53;;;3.70;;
13202;SDS011;6666;51.626;7.530;2023-02-22T12:58:45;11.50;;;3.97;;
13202;SDS011;6666;51.626;7.530;2023-02-22T13:01:20;7.57;;;3.92;;
13202;SDS011;6666;51.626;7.530;2023-02-22T13:03:53;8.25;;;3.70;;
13202;SDS011;6666;51.626;7.530;2023-02-22T13:06:27;6.35;;;3.30;;
13202;SDS011;6666;51.626;7.530;2023-02-22T13:09:13;5.95;;;3.00;;
13202;SDS011;6666;51.626;7.530;2023-02-22T13:12:01;6.20;;;3.30;;
13202;SDS011;6666;51.626;7.530;2023-02-22T13:14:36;5.43;;;3.15;;
13202;SDS011;6666;51.626;7.530;2023-02-22T13:17:13;10.60;;;3.77;;
13202;SDS011;6666;51.626;7.530;2023-02-22T13:19:51;7.53;;;3.50;;
13202;SDS011;6666;51.626;7.530;2023-02-22T13:22:26;7.20;;;3.50;;
13202;SDS011;6666;51.626;7.530;2023-02-22T13:25:03;7.50;;;3.10;;
13202;SDS011;6666;51.626;7.530;2023-02-22T13:27:37;8.05;;;3.30;;
13202;SDS011;6666;51.626;7.530;2023-02-22T13:30:14;6.90;;;3.40;;
13202;SDS011;6666;51.626;7.530;2023-02-22T13:32:53;5.22;;;2.67;;
13202;SDS011;6666;51.626;7.530;2023-02-22T13:35:48;5.00;;;2.47;;
13202;SDS011;6666;51.626;7.530;2023-02-22T13:38:52;4.40;;;2.60;;
13202;SDS011;6666;51.626;7.530;2023-02-22T13:41:55;6.30;;;2.75;;
13202;SDS011;6666;51.626;7.530;2023-02-22T13:44:51;6.35;;;2.42;;
13202;SDS011;6666;51.626;7.530;2023-02-22T13:47:53;5.70;;;2.70;;
13202;SDS011;6666;51.626;7.530;2023-02-22T13:50:40;5.60;;;2.70;;
13202;SDS011;6666;51.626;7.530;2023-02-22T13:53:19;6.20;;;2.50;;
13202;SDS011;6666;51.626;7.530;2023-02-22T13:55:53;4.40;;;2.70;;
13202;SDS011;6666;51.626;7.530;2023-02-22T13:58:24;4.65;;;2.55;;
13202;SDS011;6666;51.626;7.530;2023-02-22T14:00:53;7.20;;;2.93;;
13202;SDS011;6666;51.626;7.530;2023-02-22T14:03:27;4.88;;;2.50;;
13202;SDS011;6666;51.626;7.530;2023-02-22T14:06:03;4.45;;;2.58;;
13202;SDS011;6666;51.626;7.530;2023-02-22T14:08:45;4.10;;;2.80;;
13202;SDS011;6666;51.626;7.530;2023-02-22T14:14:19;3.83;;;2.50;;
13202;SDS011;6666;51.626;7.530;2023-02-22T14:19:59;5.82;;;2.78;;
13202;SDS011;6666;51.626;7.530;2023-02-22T14:22:41;7.43;;;2.80;;
13202;SDS011;6666;51.626;7.530;2023-02-22T14:25:33;5.28;;;3.17;;
13202;SDS011;6666;51.626;7.530;2023-02-22T14:28:06;9.03;;;3.10;;
13202;SDS011;6666;51.626;7.530;2023-02-22T14:31:03;6.32;;;3.05;;
13202;SDS011;6666;51.626;7.530;2023-02-22T14:33:56;5.53;;;2.60;;
13202;SDS011;6666;51.626;7.530;2023-02-22T14:36:28;4.70;;;2.78;;
13202;SDS011;6666;51.626;7.530;2023-02-22T14:39:14;8.05;;;2.90;;
13202;SDS011;6666;51.626;7.530;2023-02-22T14:41:47;5.93;;;2.63;;
13202;SDS011;6666;51.626;7.530;2023-02-22T14:44:22;7.18;;;2.63;;
13202;SDS011;6666;51.626;7.530;2023-02-22T14:46:54;4.53;;;2.60;;
13202;SDS011;6666;51.626;7.530;2023-02-22T14:49:27;5.15;;;2.17;;
13202;SDS011;6666;51.626;7.530;2023-02-22T14:52:04;8.20;;;3.20;;
13202;SDS011;6666;51.626;7.530;2023-02-22T14:54:38;4.15;;;2.60;;
13202;SDS011;6666;51.626;7.530;2023-02-22T14:57:24;4.13;;;2.83;;
13202;SDS011;6666;51.626;7.530;2023-02-22T15:00:03;5.55;;;2.30;;
13202;SDS011;6666;51.626;7.530;2023-02-22T15:02:45;5.60;;;2.40;;
13202;SDS011;6666;51.626;7.530;2023-02-22T15:05:15;7.35;;;2.80;;
13202;SDS011;6666;51.626;7.530;2023-02-22T15:07:50;5.22;;;2.40;;
13202;SDS011;6666;51.626;7.530;2023-02-22T15:10:25;5.90;;;2.57;;
13202;SDS011;6666;51.626;7.530;2023-02-22T15:12:59;5.20;;;2.80;;
13202;SDS011;6666;51.626;7.530;2023-02-22T15:15:38;6.40;;;3.00;;
13202;SDS011;6666;51.626;7.530;2023-02-22T15:18:13;6.00;;;2.83;;
13202;SDS011;6666;51.626;7.530;2023-02-22T15:20:47;8.02;;;3.20;;
13202;SDS011;6666;51.626;7.530;2023-02-22T15:23:23;6.47;;;3.00;;
13202;SDS011;6666;51.626;7.530;2023-02-22T15:25:57;4.50;;;2.42;;
13202;SDS011;6666;51.626;7.530;2023-02-22T15:28:26;4.43;;;2.60;;
13202;SDS011;6666;51.626;7.530;2023-02-22T15:34:08;7.38;;;2.97;;
13202;SDS011;6666;51.626;7.530;2023-02-22T15:36:45;6.68;;;3.00;;
13202;SDS011;6666;51.626;7.530;2023-02-22T15:39:17;7.68;;;3.20;;